Time;durP1;ratioP1;P1;durP2;ratioP2;P2;SDS_P1;SDS_P2;PMS_P1;PMS_P2;Temp;Humidity;BMP_temperature;BMP_pressure;BME280_temperature;BME280_humidity;BME280_pressure;Samples;Min_cycle;Max_cycle;Signal;HPM_P1;HPM_P2
2022/10/30 00:00:37;;;;;;;11.45;6.62;;;;;;;;;;1717014;83;21579;-71
2022/10/30 00:03:03;;;;;;;9.90;5.40;;;;;;;;;;1715061;83;21032;-70
2022/10/30 00:05:29;;;;;;;9.58;5.35;;;;;;;;;;1717193;83;21099;-71
2022/10/30 00:07:56;;;;;;;12.70;5.22;;;;;;;;;;1713293;83;21052;-70
2022/10/30 00:10:22;;;;;;;9.40;5.80;;;;;;;;;;1705078;83;21530;-70
2022/10/30 00:12:50;;;;;;;8.78;5.17;;;;;;;;;;1688040;83;21116;-70
2022/10/30 00:15:18;;;;;;;13.38;5.65;;;;;;;;;;1691820;83;21045;-70
2022/10/30 00:17:44;;;;;;;6.58;4.90;;;;;;;;;;1706350;83;21033;-69
2022/10/30 00:20:10;;;;;;;10.82;5.50;;;;;;;;;;1714269;83;21029;-70
2022/10/30 00:22:36;;;;;;;8.45;5.30;;;;;;;;;;1687144;85;21006;-70
2022/10/30 00:25:03;;;;;;;12.50;6.22;;;;;;;;;;1686812;83;21040;-70
2022/10/30 00:27:29;;;;;;;13.05;5.60;;;;;;;;;;1715565;83;21064;-70
2022/10/30 00:29:55;;;;;;;10.45;5.97;;;;;;;;;;1696709;83;21087;-69
2022/10/30 00:32:21;;;;;;;11.80;6.25;;;;;;;;;;1717284;83;21041;-70
2022/10/30 00:34:48;;;;;;;8.28;5.60;;;;;;;;;;1717376;83;21527;-70
2022/10/30 00:37:14;;;;;;;9.90;5.40;;;;;;;;;;1688983;83;21060;-71
2022/10/30 00:39:42;;;;;;;7.50;4.83;;;;;;;;;;1708558;83;21165;-70
2022/10/30 00:42:11;;;;;;;9.75;5.40;;;;;;;;;;1699167;83;21536;-70
2022/10/30 00:44:46;;;;;;;13.90;5.62;;;;;;;;;;1717109;83;21063;-69
2022/10/30 00:47:13;;;;;;;9.65;5.92;;;;;;;;;;1698198;83;21057;-69
2022/10/30 00:49:42;;;;;;;9.88;6.40;;;;;;;;;;1714108;83;21060;-69
2022/10/30 00:52:11;;;;;;;9.58;5.80;;;;;;;;;;1693091;83;21077;-69
2022/10/30 00:54:38;;;;;;;9.65;5.72;;;;;;;;;;1686924;83;21068;-69
2022/10/30 00:57:04;;;;;;;10.58;5.40;;;;;;;;;;1697037;83;21044;-69
2022/10/30 00:59:31;;;;;;;13.10;6.00;;;;;;;;;;1708232;83;21072;-69
2022/10/30 01:01:57;;;;;;;7.85;5.12;;;;;;;;;;1713327;83;21076;-68
2022/10/30 01:04:24;;;;;;;10.72;5.28;;;;;;;;;;1725361;83;21039;-69
2022/10/30 01:06:52;;;;;;;7.83;5.03;;;;;;;;;;1717189;83;21020;-70
2022/10/30 01:09:18;;;;;;;8.65;4.75;;;;;;;;;;1708598;83;21029;-69
2022/10/30 01:11:45;;;;;;;9.83;5.00;;;;;;;;;;1701522;83;21033;-69
2022/10/30 01:14:11;;;;;;;8.95;5.10;;;;;;;;;;1709243;83;22295;-69
2022/10/30 01:16:56;;;;;;;9.85;4.80;;;;;;;;;;1718903;83;21635;-69
2022/10/30 01:19:42;;;;;;;11.50;4.87;;;;;;;;;;1718206;83;21028;-68
2022/10/30 01:22:10;;;;;;;11.90;4.53;;;;;;;;;;1723643;83;21044;-69
2022/10/30 01:24:38;;;;;;;9.30;4.40;;;;;;;;;;1724662;83;21103;-70
2022/10/30 01:27:15;;;;;;;13.68;5.12;;;;;;;;;;1724447;83;21627;-70
2022/10/30 01:29:50;;;;;;;8.28;4.42;;;;;;;;;;1716060;83;21094;-70
2022/10/30 01:32:36;;;;;;;8.63;4.70;;;;;;;;;;1696060;83;21048;-70
2022/10/30 01:35:06;;;;;;;7.92;4.97;;;;;;;;;;1714975;83;21310;-69
2022/10/30 01:37:51;;;;;;;7.15;4.25;;;;;;;;;;1695136;83;20976;-69
2022/10/30 01:40:18;;;;;;;8.18;5.10;;;;;;;;;;1719164;83;21082;-69
2022/10/30 01:42:48;;;;;;;6.80;4.17;;;;;;;;;;1713413;83;21056;-69
2022/10/30 01:45:27;;;;;;;7.50;4.83;;;;;;;;;;1722540;83;21124;-69
2022/10/30 01:47:58;;;;;;;9.33;4.70;;;;;;;;;;1707841;83;21040;-70
2022/10/30 01:50:36;;;;;;;8.03;4.55;;;;;;;;;;1695811;84;21070;-68
2022/10/30 01:53:13;;;;;;;7.92;4.45;;;;;;;;;;1714257;83;21064;-70
2022/10/30 01:55:42;;;;;;;10.25;4.95;;;;;;;;;;1695037;83;21041;-69
2022/10/30 01:58:13;;;;;;;8.65;5.00;;;;;;;;;;1690313;83;21068;-70
2022/10/30 02:03:48;;;;;;;6.25;4.17;;;;;;;;;;1675260;79;75106;-80
2022/10/30 02:06:15;;;;;;;7.87;4.40;;;;;;;;;;1717316;82;21145;-79
2022/10/30 02:08:41;;;;;;;7.33;4.58;;;;;;;;;;1713781;83;21508;-79
2022/10/30 02:11:09;;;;;;;7.28;4.50;;;;;;;;;;1689982;83;21037;-80
2022/10/30 02:13:37;;;;;;;8.65;4.87;;;;;;;;;;1700616;83;21124;-79
2022/10/30 02:16:03;;;;;;;7.85;4.80;;;;;;;;;;1709112;83;21033;-79
2022/10/30 02:18:30;;;;;;;7.62;4.70;;;;;;;;;;1691451;83;21087;-80
2022/10/30 02:20:57;;;;;;;7.33;4.45;;;;;;;;;;1717172;82;21590;-79
2022/10/30 02:23:23;;;;;;;7.33;4.42;;;;;;;;;;1712710;83;21021;-80
2022/10/30 02:25:49;;;;;;;7.10;4.10;;;;;;;;;;1689529;83;21033;-79
2022/10/30 02:28:15;;;;;;;5.65;4.00;;;;;;;;;;1689435;83;21066;-79
2022/10/30 02:30:42;;;;;;;8.03;4.50;;;;;;;;;;1711266;82;21063;-79
2022/10/30 02:33:09;;;;;;;10.50;4.90;;;;;;;;;;1710135;83;21527;-79
2022/10/30 02:35:36;;;;;;;6.33;4.15;;;;;;;;;;1719025;83;21058;-79
2022/10/30 02:38:02;;;;;;;6.37;4.30;;;;;;;;;;1718340;83;21020;-79
2022/10/30 02:40:29;;;;;;;8.58;4.20;;;;;;;;;;1700640;83;21041;-79
2022/10/30 02:42:56;;;;;;;6.55;4.22;;;;;;;;;;1709057;82;21622;-80
2022/10/30 02:45:22;;;;;;;7.28;3.90;;;;;;;;;;1691415;83;20993;-79
2022/10/30 02:47:49;;;;;;;6.55;3.77;;;;;;;;;;1716509;83;21024;-80
2022/10/30 02:50:15;;;;;;;7.17;4.53;;;;;;;;;;1710782;83;21071;-80
2022/10/30 02:52:43;;;;;;;6.92;4.53;;;;;;;;;;1697638;82;21148;-80
2022/10/30 02:55:09;;;;;;;6.92;4.20;;;;;;;;;;1689552;83;21045;-80
2022/10/30 02:57:35;;;;;;;5.17;3.70;;;;;;;;;;1689253;85;21075;-80
2022/10/30 03:00:03;;;;;;;9.15;4.30;;;;;;;;;;1690318;83;21108;-80
2022/10/30 03:02:29;;;;;;;5.00;3.80;;;;;;;;;;1707066;82;21525;-80
2022/10/30 03:04:55;;;;;;;6.17;3.85;;;;;;;;;;1706443;82;21069;-80
2022/10/30 03:07:22;;;;;;;7.72;4.50;;;;;;;;;;1715952;82;21060;-80
2022/10/30 03:09:49;;;;;;;9.60;4.35;;;;;;;;;;1736753;82;21508;-79
2022/10/30 03:12:16;;;;;;;5.55;3.87;;;;;;;;;;1699095;84;21111;-81
2022/10/30 03:14:45;;;;;;;5.80;3.80;;;;;;;;;;1712756;84;21045;-81
2022/10/30 03:17:13;;;;;;;8.63;4.00;;;;;;;;;;1714357;82;21060;-79
2022/10/30 03:19:40;;;;;;;8.13;4.00;;;;;;;;;;1714525;82;21048;-79
2022/10/30 03:22:08;;;;;;;7.35;3.95;;;;;;;;;;1721474;82;21531;-79
2022/10/30 03:24:37;;;;;;;7.30;4.37;;;;;;;;;;1712932;84;21067;-79
2022/10/30 03:27:03;;;;;;;8.08;4.20;;;;;;;;;;1714802;82;21556;-79
2022/10/30 03:29:30;;;;;;;7.58;3.83;;;;;;;;;;1715144;82;22150;-80
2022/10/30 03:31:56;;;;;;;8.93;4.22;;;;;;;;;;1716702;82;21024;-80
2022/10/30 03:34:23;;;;;;;7.92;4.03;;;;;;;;;;1713265;84;21072;-80
2022/10/30 03:36:50;;;;;;;7.58;4.00;;;;;;;;;;1690006;84;21056;-80
2022/10/30 03:39:16;;;;;;;6.22;3.77;;;;;;;;;;1729798;82;21055;-80
2022/10/30 03:41:43;;;;;;;9.10;4.05;;;;;;;;;;1713863;83;21060;-80
2022/10/30 03:44:09;;;;;;;4.60;3.87;;;;;;;;;;1713359;84;21468;-81
2022/10/30 03:46:35;;;;;;;8.15;3.85;;;;;;;;;;1713671;84;21028;-80
2022/10/30 03:49:04;;;;;;;5.75;3.67;;;;;;;;;;1713383;82;22198;-80
2022/10/30 03:51:31;;;;;;;6.90;4.20;;;;;;;;;;1719871;82;21076;-79
2022/10/30 03:53:57;;;;;;;7.80;3.85;;;;;;;;;;1713297;84;21075;-80
2022/10/30 03:56:25;;;;;;;7.12;4.10;;;;;;;;;;1713323;84;21044;-80
2022/10/30 03:58:53;;;;;;;7.50;4.17;;;;;;;;;;1714560;82;21069;-80
2022/10/30 04:01:21;;;;;;;6.25;3.83;;;;;;;;;;1732754;82;21036;-81
2022/10/30 04:03:50;;;;;;;8.68;3.92;;;;;;;;;;1712467;82;21599;-80
2022/10/30 04:06:16;;;;;;;8.88;4.30;;;;;;;;;;1713531;84;21001;-81
2022/10/30 04:08:43;;;;;;;5.90;3.80;;;;;;;;;;1733827;82;20962;-80
2022/10/30 04:11:11;;;;;;;6.72;4.22;;;;;;;;;;1734600;82;21029;-80
2022/10/30 04:13:39;;;;;;;6.35;4.00;;;;;;;;;;1713584;84;21049;-80
2022/10/30 04:16:06;;;;;;;7.42;4.00;;;;;;;;;;1714222;82;21033;-80
2022/10/30 04:18:33;;;;;;;8.20;3.52;;;;;;;;;;1714824;84;21066;-80
2022/10/30 04:21:01;;;;;;;5.15;3.42;;;;;;;;;;1728223;82;21013;-79
2022/10/30 04:23:27;;;;;;;7.47;3.85;;;;;;;;;;1713223;84;21527;-78
2022/10/30 04:25:54;;;;;;;6.37;3.80;;;;;;;;;;1714150;82;21080;-75
2022/10/30 04:28:20;;;;;;;7.95;3.67;;;;;;;;;;1714469;84;21111;-81
2022/10/30 04:30:48;;;;;;;7.40;3.72;;;;;;;;;;1727361;82;21021;-79
2022/10/30 04:33:15;;;;;;;6.50;3.58;;;;;;;;;;1714504;82;21021;-79
2022/10/30 04:35:43;;;;;;;5.60;3.55;;;;;;;;;;1713880;82;21052;-80
2022/10/30 04:38:12;;;;;;;5.85;3.33;;;;;;;;;;1717616;82;21445;-80
2022/10/30 04:40:40;;;;;;;7.55;4.15;;;;;;;;;;1728589;82;21347;-80
2022/10/30 04:43:06;;;;;;;8.20;3.92;;;;;;;;;;1713375;83;22125;-79
2022/10/30 04:45:33;;;;;;;6.28;3.83;;;;;;;;;;1713021;84;21001;-78
2022/10/30 04:48:04;;;;;;;5.87;3.33;;;;;;;;;;1713038;84;21037;-78
2022/10/30 04:50:31;;;;;;;4.47;3.15;;;;;;;;;;1707509;82;20973;-78
2022/10/30 04:52:59;;;;;;;6.00;3.17;;;;;;;;;;1713369;83;21009;-78
2022/10/30 04:55:25;;;;;;;6.80;3.47;;;;;;;;;;1711965;84;21534;-78
2022/10/30 04:57:53;;;;;;;4.12;2.77;;;;;;;;;;1713157;84;21555;-78
2022/10/30 05:00:19;;;;;;;5.45;3.05;;;;;;;;;;1718813;82;20970;-78
2022/10/30 05:02:45;;;;;;;5.80;3.33;;;;;;;;;;1722464;81;20993;-78
2022/10/30 05:05:11;;;;;;;9.05;3.50;;;;;;;;;;1729967;81;21571;-79
2022/10/30 05:07:38;;;;;;;7.03;3.37;;;;;;;;;;1716952;82;21068;-79
2022/10/30 05:10:05;;;;;;;4.95;3.08;;;;;;;;;;1716986;83;21044;-78
2022/10/30 05:12:31;;;;;;;5.83;2.98;;;;;;;;;;1740617;82;21063;-79
2022/10/30 05:14:58;;;;;;;7.20;4.05;;;;;;;;;;1737292;82;21048;-79
2022/10/30 05:17:24;;;;;;;5.62;3.00;;;;;;;;;;1690560;83;21083;-80
2022/10/30 05:19:51;;;;;;;4.67;3.10;;;;;;;;;;1724895;82;21012;-79
2022/10/30 05:22:18;;;;;;;5.42;2.83;;;;;;;;;;1664809;83;21544;-79
2022/10/30 05:24:44;;;;;;;5.67;2.77;;;;;;;;;;1687914;83;21092;-79
2022/10/30 05:27:10;;;;;;;6.80;3.00;;;;;;;;;;1717292;82;21060;-79
2022/10/30 05:29:37;;;;;;;7.92;3.02;;;;;;;;;;1715782;83;21044;-79
2022/10/30 05:32:03;;;;;;;5.25;3.08;;;;;;;;;;1715740;83;21051;-79
2022/10/30 05:34:37;;;;;;;5.92;3.17;;;;;;;;;;1716533;83;21259;-79
2022/10/30 05:37:03;;;;;;;7.95;3.15;;;;;;;;;;1734296;82;21032;-79
2022/10/30 05:39:30;;;;;;;6.92;3.27;;;;;;;;;;1728388;82;21604;-80
2022/10/30 05:41:57;;;;;;;5.92;3.40;;;;;;;;;;1735559;82;21017;-79
2022/10/30 05:44:30;;;;;;;4.83;3.15;;;;;;;;;;1725982;82;21028;-80
2022/10/30 05:46:55;;;;;;;5.97;2.77;;;;;;;;;;1724219;82;21115;-80
2022/10/30 05:49:24;;;;;;;9.63;4.62;;;;;;;;;;1717717;82;21091;-79
2022/10/30 05:51:51;;;;;;;6.40;3.85;;;;;;;;;;1715145;82;21106;-80
2022/10/30 05:54:17;;;;;;;7.33;3.90;;;;;;;;;;1699283;82;21036;-78
2022/10/30 05:56:46;;;;;;;6.90;3.12;;;;;;;;;;1715176;83;21049;-79
2022/10/30 05:59:12;;;;;;;7.08;2.90;;;;;;;;;;1733679;82;21088;-78
2022/10/30 06:01:38;;;;;;;7.87;2.60;;;;;;;;;;1745701;82;21578;-78
2022/10/30 06:04:05;;;;;;;4.05;2.50;;;;;;;;;;1723827;82;21052;-78
2022/10/30 06:06:32;;;;;;;4.92;2.60;;;;;;;;;;1732558;82;21044;-80
2022/10/30 06:08:58;;;;;;;4.67;2.90;;;;;;;;;;1735918;82;20972;-78
2022/10/30 06:11:30;;;;;;;3.90;2.60;;;;;;;;;;1732966;82;21029;-79
2022/10/30 06:13:57;;;;;;;6.03;2.83;;;;;;;;;;1734444;82;21031;-79
2022/10/30 06:16:26;;;;;;;5.97;2.90;;;;;;;;;;1731443;81;21042;-79
2022/10/30 06:18:54;;;;;;;4.47;2.80;;;;;;;;;;1730673;82;21086;-79
2022/10/30 06:21:20;;;;;;;5.00;2.62;;;;;;;;;;1735291;83;21016;-79
2022/10/30 06:23:50;;;;;;;5.12;2.50;;;;;;;;;;1731672;81;21035;-79
2022/10/30 06:26:21;;;;;;;4.25;2.27;;;;;;;;;;1678616;82;21016;-79
2022/10/30 06:28:49;;;;;;;7.90;2.92;;;;;;;;;;1736152;81;21376;-79
2022/10/30 06:31:16;;;;;;;11.83;5.75;;;;;;;;;;1738204;81;21029;-81
2022/10/30 06:33:43;;;;;;;7.05;4.00;;;;;;;;;;1733490;81;21148;-80
2022/10/30 06:36:10;;;;;;;5.78;2.95;;;;;;;;;;1744933;81;21610;-80
2022/10/30 06:38:36;;;;;;;3.50;2.30;;;;;;;;;;1737432;81;21020;-80
2022/10/30 06:41:03;;;;;;;4.75;2.40;;;;;;;;;;1714471;81;21016;-80
2022/10/30 06:43:33;;;;;;;4.30;2.20;;;;;;;;;;1734419;83;21004;-79
2022/10/30 06:46:04;;;;;;;3.60;2.12;;;;;;;;;;1735087;81;21620;-80
2022/10/30 06:48:32;;;;;;;4.25;2.40;;;;;;;;;;1737490;81;20996;-79
2022/10/30 06:50:59;;;;;;;6.87;2.42;;;;;;;;;;1738853;81;21020;-79
2022/10/30 06:53:27;;;;;;;5.03;2.40;;;;;;;;;;1732373;81;21076;-78
2022/10/30 06:55:56;;;;;;;5.15;2.55;;;;;;;;;;1733273;81;20976;-80
2022/10/30 06:58:27;;;;;;;4.28;2.40;;;;;;;;;;1684024;83;21040;-79
2022/10/30 07:00:57;;;;;;;5.20;2.40;;;;;;;;;;1710114;82;20976;-80
2022/10/30 07:03:42;;;;;;;5.67;2.20;;;;;;;;;;1733673;83;22145;-77
2022/10/30 07:06:09;;;;;;;4.70;2.35;;;;;;;;;;1737491;82;21577;-80
2022/10/30 07:08:35;;;;;;;4.62;2.42;;;;;;;;;;1713318;83;21485;-80
2022/10/30 07:11:03;;;;;;;7.62;2.58;;;;;;;;;;1718526;82;21045;-80
2022/10/30 07:14:17;;;;;;;4.33;2.67;;;;;;;;;;1789057;79;22929;-68
2022/10/30 07:17:02;;;;;;;3.85;2.30;;;;;;;;;;1756275;81;21563;-68
2022/10/30 07:19:29;;;;;;;4.22;2.60;;;;;;;;;;1728976;80;21060;-68
2022/10/30 07:21:59;;;;;;;4.33;2.27;;;;;;;;;;1782093;80;21053;-68
2022/10/30 07:24:26;;;;;;;3.92;2.00;;;;;;;;;;1782154;80;21040;-68
2022/10/30 07:27:10;;;;;;;4.15;2.15;;;;;;;;;;1772749;80;21052;-69
2022/10/30 07:29:38;;;;;;;7.55;2.67;;;;;;;;;;1729869;80;21056;-69
2022/10/30 07:32:20;;;;;;;3.58;2.15;;;;;;;;;;1786757;80;21060;-69
2022/10/30 07:34:51;;;;;;;5.42;2.45;;;;;;;;;;1783658;80;21232;-69
2022/10/30 07:37:34;;;;;;;4.55;2.02;;;;;;;;;;1775721;80;21108;-69
2022/10/30 07:40:02;;;;;;;4.58;2.20;;;;;;;;;;1754778;82;21056;-69
2022/10/30 07:42:31;;;;;;;4.75;2.25;;;;;;;;;;1752172;80;21532;-69
2022/10/30 07:45:11;;;;;;;4.60;2.42;;;;;;;;;;1769301;80;21076;-68
2022/10/30 07:47:57;;;;;;;3.20;1.80;;;;;;;;;;1727913;80;21773;-69
2022/10/30 07:50:41;;;;;;;3.92;2.08;;;;;;;;;;1766648;80;21029;-69
2022/10/30 07:53:07;;;;;;;4.90;2.15;;;;;;;;;;1766468;80;21009;-69
2022/10/30 07:55:34;;;;;;;5.72;2.83;;;;;;;;;;1759674;80;21507;-69
2022/10/30 07:58:14;;;;;;;4.12;2.45;;;;;;;;;;1765872;80;21579;-69
2022/10/30 08:00:43;;;;;;;4.35;2.15;;;;;;;;;;1724887;80;21560;-69
2022/10/30 08:03:24;;;;;;;4.92;2.20;;;;;;;;;;1735770;82;21084;-70
2022/10/30 08:05:52;;;;;;;2.92;2.00;;;;;;;;;;1738762;82;21051;-69
2022/10/30 08:08:23;;;;;;;2.77;1.72;;;;;;;;;;1726655;82;21534;-68
2022/10/30 08:10:52;;;;;;;2.77;1.72;;;;;;;;;;1706217;84;21584;-67
2022/10/30 08:13:19;;;;;;;5.47;1.82;;;;;;;;;;1712765;82;21165;-67
2022/10/30 08:15:45;;;;;;;3.42;1.92;;;;;;;;;;1718924;82;21603;-67
2022/10/30 08:18:12;;;;;;;4.40;2.10;;;;;;;;;;1723996;82;21023;-69
2022/10/30 08:20:39;;;;;;;2.92;1.80;;;;;;;;;;1725272;82;21014;-72
2022/10/30 08:23:06;;;;;;;3.80;1.90;;;;;;;;;;1722787;82;21053;-72
2022/10/30 08:25:33;;;;;;;5.42;2.20;;;;;;;;;;1720885;82;20997;-70
2022/10/30 08:28:03;;;;;;;2.77;1.70;;;;;;;;;;1732790;82;21573;-71
2022/10/30 08:30:33;;;;;;;4.17;1.90;;;;;;;;;;1706537;82;21022;-70
2022/10/30 08:33:00;;;;;;;4.08;1.70;;;;;;;;;;1716554;82;21018;-71
2022/10/30 08:35:49;;;;;;;3.42;1.98;;;;;;;;;;1722697;82;21021;-71
2022/10/30 08:38:17;;;;;;;3.77;1.80;;;;;;;;;;1724218;82;21010;-71
2022/10/30 08:40:44;;;;;;;3.00;1.80;;;;;;;;;;1717517;82;21000;-71
2022/10/30 08:43:10;;;;;;;4.35;1.70;;;;;;;;;;1733353;82;21334;-70
2022/10/30 08:45:38;;;;;;;4.60;1.90;;;;;;;;;;1728901;82;21001;-71
2022/10/30 08:48:12;;;;;;;3.52;1.80;;;;;;;;;;1724664;81;20985;-70
2022/10/30 08:50:40;;;;;;;1.92;1.62;;;;;;;;;;1703717;82;21045;-71
2022/10/30 08:53:07;;;;;;;3.35;1.65;;;;;;;;;;1726985;82;21044;-72
2022/10/30 08:55:34;;;;;;;5.50;1.60;;;;;;;;;;1723511;82;21001;-72
2022/10/30 08:58:04;;;;;;;3.50;1.65;;;;;;;;;;1738422;82;21057;-72
2022/10/30 09:00:30;;;;;;;3.85;1.60;;;;;;;;;;1737341;82;21592;-71
2022/10/30 09:03:07;;;;;;;3.08;2.02;;;;;;;;;;1685512;84;21131;-72
2022/10/30 09:05:50;;;;;;;4.20;1.70;;;;;;;;;;1702686;83;21161;-73
2022/10/30 09:08:19;;;;;;;4.85;2.00;;;;;;;;;;1728349;81;21525;-73
2022/10/30 09:11:05;;;;;;;5.20;2.00;;;;;;;;;;1738978;81;21065;-72
2022/10/30 09:13:33;;;;;;;3.60;2.00;;;;;;;;;;1730635;81;21013;-75
2022/10/30 09:16:00;;;;;;;3.25;1.90;;;;;;;;;;1705072;82;21015;-75
2022/10/30 09:18:27;;;;;;;4.70;1.80;;;;;;;;;;1705350;82;21121;-74
2022/10/30 09:20:55;;;;;;;3.40;1.72;;;;;;;;;;1720230;81;21198;-73
2022/10/30 09:23:22;;;;;;;3.58;1.80;;;;;;;;;;1690337;84;21029;-73
2022/10/30 09:25:51;;;;;;;2.65;1.80;;;;;;;;;;1736618;82;21540;-74
2022/10/30 09:28:24;;;;;;;4.05;1.72;;;;;;;;;;1735490;82;21014;-74
2022/10/30 09:31:08;;;;;;;4.33;1.80;;;;;;;;;;1727754;82;21004;-74
2022/10/30 09:33:37;;;;;;;3.35;1.77;;;;;;;;;;1730686;81;21162;-74
2022/10/30 09:36:05;;;;;;;4.30;2.12;;;;;;;;;;1694392;82;21029;-75
2022/10/30 09:38:32;;;;;;;3.50;1.67;;;;;;;;;;1729118;82;21092;-73
2022/10/30 09:41:00;;;;;;;3.00;1.60;;;;;;;;;;1723759;82;21053;-72
2022/10/30 09:43:38;;;;;;;3.05;1.40;;;;;;;;;;1726356;81;21759;-73
2022/10/30 09:46:15;;;;;;;3.10;1.90;;;;;;;;;;1729240;82;21585;-73
2022/10/30 09:48:43;;;;;;;4.85;1.92;;;;;;;;;;1700403;82;21033;-73
2022/10/30 09:51:19;;;;;;;5.53;2.00;;;;;;;;;;1732748;82;21026;-75
2022/10/30 09:53:49;;;;;;;5.08;1.72;;;;;;;;;;1737360;82;21105;-75
2022/10/30 09:56:19;;;;;;;6.33;2.75;;;;;;;;;;1733128;82;21049;-75
2022/10/30 09:58:57;;;;;;;4.78;2.08;;;;;;;;;;1738910;82;21108;-77
2022/10/30 10:01:29;;;;;;;4.15;2.00;;;;;;;;;;1737314;82;21581;-77
2022/10/30 10:04:01;;;;;;;3.50;1.70;;;;;;;;;;1736807;82;21628;-76
2022/10/30 10:06:42;;;;;;;5.30;1.70;;;;;;;;;;1728494;82;21084;-75
2022/10/30 10:09:14;;;;;;;3.98;2.25;;;;;;;;;;1734183;81;20999;-75
2022/10/30 10:12:00;;;;;;;7.55;3.60;;;;;;;;;;1720366;82;21041;-75
2022/10/30 10:14:29;;;;;;;6.35;2.70;;;;;;;;;;1745711;82;21045;-75
2022/10/30 10:16:56;;;;;;;3.95;2.00;;;;;;;;;;1747380;82;21578;-76
2022/10/30 10:19:28;;;;;;;3.25;2.20;;;;;;;;;;1731197;82;21044;-75
2022/10/30 10:21:59;;;;;;;6.97;3.42;;;;;;;;;;1734976;82;20957;-77
2022/10/30 10:24:27;;;;;;;13.10;5.70;;;;;;;;;;1740682;81;21059;-72
2022/10/30 10:26:55;;;;;;;16.97;6.92;;;;;;;;;;1752896;82;21101;-72
2022/10/30 10:29:40;;;;;;;21.97;8.18;;;;;;;;;;1753154;82;21061;-70
2022/10/30 10:32:16;;;;;;;26.02;8.85;;;;;;;;;;1752641;82;21060;-72
2022/10/30 10:34:44;;;;;;;21.97;8.78;;;;;;;;;;1753365;82;20957;-71
2022/10/30 10:37:12;;;;;;;22.22;8.68;;;;;;;;;;1752890;82;21060;-72
2022/10/30 10:39:40;;;;;;;30.10;10.88;;;;;;;;;;1753374;81;21607;-72
2022/10/30 10:42:25;;;;;;;28.30;10.20;;;;;;;;;;1732854;82;21064;-71
2022/10/30 10:44:53;;;;;;;43.33;13.58;;;;;;;;;;1747240;82;21013;-71
2022/10/30 10:47:33;;;;;;;28.90;10.35;;;;;;;;;;1753327;82;21036;-72
2022/10/30 10:50:16;;;;;;;15.72;7.50;;;;;;;;;;1741281;81;21076;-71
2022/10/30 10:52:48;;;;;;;18.37;7.75;;;;;;;;;;1740866;82;21094;-72
2022/10/30 10:55:16;;;;;;;7.70;3.52;;;;;;;;;;1752779;81;21037;-71
2022/10/30 10:57:43;;;;;;;5.80;2.70;;;;;;;;;;1753169;81;21048;-72
2022/10/30 11:00:14;;;;;;;4.45;1.90;;;;;;;;;;1753481;81;21068;-72
2022/10/30 11:02:41;;;;;;;4.15;1.72;;;;;;;;;;1752867;82;21123;-72
2022/10/30 11:05:09;;;;;;;3.42;1.70;;;;;;;;;;1708668;83;22220;-71
2022/10/30 11:07:37;;;;;;;13.32;4.17;;;;;;;;;;1723116;83;21040;-72
2022/10/30 11:10:06;;;;;;;6.25;2.90;;;;;;;;;;1723505;83;21037;-71
2022/10/30 11:12:35;;;;;;;6.05;2.87;;;;;;;;;;1723515;83;21071;-72
2022/10/30 11:15:04;;;;;;;3.87;1.70;;;;;;;;;;1734806;82;21104;-71
2022/10/30 11:17:42;;;;;;;6.17;2.70;;;;;;;;;;1738987;82;21049;-71
2022/10/30 11:20:17;;;;;;;6.35;2.20;;;;;;;;;;1739333;82;21589;-71
2022/10/30 11:22:45;;;;;;;3.92;2.17;;;;;;;;;;1739074;82;21037;-72
2022/10/30 11:25:19;;;;;;;4.75;2.15;;;;;;;;;;1739259;82;21002;-72
2022/10/30 11:27:49;;;;;;;4.22;1.90;;;;;;;;;;1739383;82;21080;-72
2022/10/30 11:30:15;;;;;;;4.37;1.90;;;;;;;;;;1739256;82;21029;-71
2022/10/30 11:32:41;;;;;;;3.87;2.00;;;;;;;;;;1718324;82;21025;-72
2022/10/30 11:35:09;;;;;;;4.95;2.30;;;;;;;;;;1734769;82;21017;-69
2022/10/30 11:37:36;;;;;;;2.55;1.77;;;;;;;;;;1735091;82;21012;-71
2022/10/30 11:40:05;;;;;;;5.85;1.95;;;;;;;;;;1715764;82;21803;-71
2022/10/30 11:42:33;;;;;;;3.85;1.80;;;;;;;;;;1721987;82;21056;-70
2022/10/30 11:44:59;;;;;;;3.22;1.77;;;;;;;;;;1739042;82;21065;-72
2022/10/30 11:47:27;;;;;;;5.70;2.10;;;;;;;;;;1737123;82;21024;-72
2022/10/30 11:49:55;;;;;;;4.47;1.82;;;;;;;;;;1730112;82;21574;-72
2022/10/30 11:52:22;;;;;;;2.90;1.85;;;;;;;;;;1736614;82;21536;-71
2022/10/30 11:54:59;;;;;;;2.67;1.80;;;;;;;;;;1722901;82;21100;-72
2022/10/30 11:57:33;;;;;;;3.60;2.00;;;;;;;;;;1709822;84;21033;-71
2022/10/30 12:00:01;;;;;;;3.33;1.87;;;;;;;;;;1734654;82;21563;-72
2022/10/30 12:02:29;;;;;;;13.03;2.10;;;;;;;;;;1731584;82;21131;-71
2022/10/30 12:05:00;;;;;;;2.35;1.80;;;;;;;;;;1712798;82;21473;-71
2022/10/30 12:07:33;;;;;;;3.70;2.20;;;;;;;;;;1709998;82;21041;-72
2022/10/30 12:10:03;;;;;;;2.22;1.70;;;;;;;;;;1709733;82;21005;-71
2022/10/30 12:12:35;;;;;;;3.00;1.92;;;;;;;;;;1721795;82;21073;-71
2022/10/30 12:15:11;;;;;;;2.80;1.90;;;;;;;;;;1734244;81;21553;-71
2022/10/30 12:17:38;;;;;;;4.47;2.10;;;;;;;;;;1736726;82;20989;-71
2022/10/30 12:20:07;;;;;;;3.80;2.02;;;;;;;;;;1745999;82;21718;-71
2022/10/30 12:22:35;;;;;;;4.33;2.12;;;;;;;;;;1721872;82;21532;-71
2022/10/30 12:25:03;;;;;;;3.30;1.72;;;;;;;;;;1734010;82;21004;-71
2022/10/30 12:27:30;;;;;;;6.10;2.30;;;;;;;;;;1711577;83;21043;-71
2022/10/30 12:30:01;;;;;;;3.77;2.20;;;;;;;;;;1742786;82;21001;-71
2022/10/30 12:32:28;;;;;;;5.53;2.83;;;;;;;;;;1753154;82;21599;-71
2022/10/30 12:34:59;;;;;;;5.47;2.67;;;;;;;;;;1739726;81;21040;-71
2022/10/30 12:37:29;;;;;;;5.40;3.12;;;;;;;;;;1744526;82;21500;-71
2022/10/30 12:39:56;;;;;;;3.67;2.75;;;;;;;;;;1737015;82;20977;-72
2022/10/30 12:42:24;;;;;;;5.08;2.67;;;;;;;;;;1751683;82;21040;-72
2022/10/30 12:44:56;;;;;;;8.25;2.47;;;;;;;;;;1730120;81;20957;-69
2022/10/30 12:47:27;;;;;;;3.00;2.22;;;;;;;;;;1736249;82;21587;-69
2022/10/30 12:49:56;;;;;;;3.58;2.02;;;;;;;;;;1741309;82;21048;-77
2022/10/30 12:52:35;;;;;;;3.77;2.10;;;;;;;;;;1743947;82;21056;-77
2022/10/30 12:55:04;;;;;;;3.72;1.92;;;;;;;;;;1743390;81;21036;-75
2022/10/30 12:57:32;;;;;;;3.42;1.80;;;;;;;;;;1741870;82;21096;-77
2022/10/30 13:00:14;;;;;;;4.80;2.75;;;;;;;;;;1743004;82;21000;-75
2022/10/30 13:02:49;;;;;;;3.90;2.10;;;;;;;;;;1730788;82;21516;-78
2022/10/30 13:05:24;;;;;;;4.72;2.22;;;;;;;;;;1743083;80;21043;-79
2022/10/30 13:07:58;;;;;;;3.62;1.85;;;;;;;;;;1729820;82;21040;-75
2022/10/30 13:10:29;;;;;;;4.30;2.00;;;;;;;;;;1747750;82;21048;-74
2022/10/30 13:13:00;;;;;;;3.20;1.80;;;;;;;;;;1751915;81;21001;-74
2022/10/30 13:15:34;;;;;;;3.10;1.80;;;;;;;;;;1741210;81;21058;-75
2022/10/30 13:18:02;;;;;;;4.03;2.00;;;;;;;;;;1715822;82;21021;-75
2022/10/30 13:20:28;;;;;;;3.08;1.82;;;;;;;;;;1713362;82;21053;-76
2022/10/30 13:22:59;;;;;;;3.47;1.90;;;;;;;;;;1709590;84;21061;-75
2022/10/30 13:25:33;;;;;;;2.58;1.77;;;;;;;;;;1708483;84;21017;-75
2022/10/30 13:28:06;;;;;;;4.00;1.87;;;;;;;;;;1727559;82;21037;-74
2022/10/30 13:30:37;;;;;;;3.50;1.80;;;;;;;;;;1714058;82;21100;-74
2022/10/30 13:33:27;;;;;;;4.58;1.80;;;;;;;;;;1694790;82;21105;-75
2022/10/30 13:35:57;;;;;;;5.20;2.20;;;;;;;;;;1716717;82;21077;-76
2022/10/30 13:38:42;;;;;;;3.95;1.70;;;;;;;;;;1732979;82;21009;-76
2022/10/30 13:41:24;;;;;;;4.22;2.08;;;;;;;;;;1734231;82;21009;-75
2022/10/30 13:44:09;;;;;;;4.08;2.02;;;;;;;;;;1731593;82;21056;-75
2022/10/30 13:46:54;;;;;;;3.62;1.87;;;;;;;;;;1723942;82;21497;-75
2022/10/30 13:49:34;;;;;;;4.70;1.95;;;;;;;;;;1721750;82;21088;-74
2022/10/30 13:52:16;;;;;;;4.35;2.00;;;;;;;;;;1696745;82;21159;-75
2022/10/30 13:54:51;;;;;;;4.62;2.08;;;;;;;;;;1710082;82;21081;-74
2022/10/30 13:57:19;;;;;;;3.85;2.12;;;;;;;;;;1723368;82;21029;-75
2022/10/30 13:59:47;;;;;;;4.03;1.60;;;;;;;;;;1704014;82;21010;-74
2022/10/30 14:02:15;;;;;;;3.70;2.00;;;;;;;;;;1734910;82;21057;-75
2022/10/30 14:04:50;;;;;;;5.05;2.00;;;;;;;;;;1715628;82;21538;-74
2022/10/30 14:07:28;;;;;;;3.22;1.90;;;;;;;;;;1732455;82;21056;-75
2022/10/30 14:09:59;;;;;;;5.45;2.00;;;;;;;;;;1703875;81;21286;-76
2022/10/30 14:12:44;;;;;;;6.55;2.77;;;;;;;;;;1729548;81;21528;-74
2022/10/30 14:15:21;;;;;;;4.45;2.55;;;;;;;;;;1705764;82;21589;-73
2022/10/30 14:18:06;;;;;;;4.40;2.10;;;;;;;;;;1702165;84;21592;-74
2022/10/30 14:20:32;;;;;;;2.45;2.00;;;;;;;;;;1738837;82;21556;-73
2022/10/30 14:23:16;;;;;;;5.00;2.27;;;;;;;;;;1731786;82;21038;-74
2022/10/30 14:25:42;;;;;;;6.45;3.10;;;;;;;;;;1734824;82;21053;-74
2022/10/30 14:28:18;;;;;;;10.78;6.67;;;;;;;;;;1743196;82;21068;-74
2022/10/30 14:30:44;;;;;;;8.83;4.72;;;;;;;;;;1727454;82;21551;-75
2022/10/30 14:33:15;;;;;;;10.70;5.45;;;;;;;;;;1715416;82;21092;-75
2022/10/30 14:35:41;;;;;;;9.60;5.80;;;;;;;;;;1693627;83;21617;-74
2022/10/30 14:38:09;;;;;;;13.10;6.55;;;;;;;;;;1725360;82;20982;-74
2022/10/30 14:40:56;;;;;;;10.90;6.50;;;;;;;;;;1743523;82;21076;-75
2022/10/30 14:43:25;;;;;;;7.20;4.47;;;;;;;;;;1717636;82;21091;-75
2022/10/30 14:46:06;;;;;;;15.53;7.72;;;;;;;;;;1742606;82;21088;-75
2022/10/30 14:48:49;;;;;;;14.38;7.30;;;;;;;;;;1665464;82;21044;-74
2022/10/30 14:51:26;;;;;;;14.95;6.50;;;;;;;;;;1743021;82;21053;-75
2022/10/30 14:53:59;;;;;;;17.92;8.50;;;;;;;;;;1738760;82;21099;-74
2022/10/30 14:56:46;;;;;;;11.88;5.75;;;;;;;;;;1722757;82;21000;-75
2022/10/30 14:59:16;;;;;;;6.65;2.90;;;;;;;;;;1717761;82;21080;-75
2022/10/30 15:02:02;;;;;;;3.80;2.12;;;;;;;;;;1742495;82;21096;-75